PWSweather.com
Personal Weather Stations
Station Observations
VPOKROGLO
Kal Nad Kanalom, PrimorskaSI

Kal Nad KanalomPrimorskaSI

Lat: 46.072, Lon: 13.734

Elevation: 2526

Station Type: WS-2355

http://www.okroglovreme.com

High Low Average
Temperature 74.1°F23.4°C 56.8°F13.8°C 63.1°F17.3°C
Dew Point 59.4°F15.2°C 47.3°F8.5°C 52.6°F11.4°C
Winds 5.1 mph 8.2 kmh 1.5 mph 2.4 kmh 3.0 mph SW4.8 kmh SW
Wind Gusts 18.8 mph30.3 kmh 5.4 mph8.7 kmh 10.0 mph16.1 kmh
Humidity 77% 60% 69%
Pressure 30.14 in1020.7 mb 30.09 in1019.0 mb -
Precipitation 0.00 in0.0 mm - -
Hour Temp Dew Point Humidity Winds Wind Gusts Pressure Precip Precip Rate Daily Precip Total
12:00 AM 57.0°F13.9°C 49.9°F9.9°C 77% 4.1 mph SSW6.6 kmh SSW 17.0 mph27.4 kmh 30.10 in1019.3 mb 0.00 in0.0 mm 0.00 in0.0 mm 0.00 in0.0 mm
12:15 AM 57.0°F13.9°C 49.5°F9.7°C 76% 4.0 mph SW6.4 kmh SW 18.8 mph30.3 kmh 30.11 in1019.6 mb 0.00 in0.0 mm 0.00 in0.0 mm 0.00 in0.0 mm
12:30 AM 57.4°F14.1°C 49.2°F9.6°C 74% 3.4 mph WSW5.5 kmh WSW 10.3 mph16.6 kmh 30.10 in1019.3 mb 0.00 in0.0 mm 0.00 in0.0 mm 0.00 in0.0 mm
12:45 AM 57.4°F14.1°C 48.8°F9.3°C 73% 4.4 mph W7.1 kmh W 13.0 mph20.9 kmh 30.10 in1019.3 mb 0.00 in0.0 mm 0.00 in0.0 mm 0.00 in0.0 mm
01:00 AM 57.2°F14.0°C 48.6°F9.2°C 73% 4.0 mph SW6.4 kmh SW 10.5 mph16.9 kmh 30.10 in1019.3 mb 0.00 in0.0 mm 0.00 in0.0 mm 0.00 in0.0 mm
01:15 AM 57.0°F13.9°C 48.1°F8.9°C 72% 3.9 mph SW6.3 kmh SW 8.9 mph14.3 kmh 30.10 in1019.3 mb 0.00 in0.0 mm 0.00 in0.0 mm 0.00 in0.0 mm
01:30 AM 57.4°F14.1°C 48.1°F8.9°C 71% 4.1 mph SW6.6 kmh SW 9.6 mph15.4 kmh 30.09 in1019.0 mb 0.00 in0.0 mm 0.00 in0.0 mm 0.00 in0.0 mm
01:45 AM 57.4°F14.1°C 48.1°F8.9°C 71% 4.2 mph SW6.8 kmh SW 11.4 mph18.3 kmh 30.10 in1019.3 mb 0.00 in0.0 mm 0.00 in0.0 mm 0.00 in0.0 mm
02:00 AM 57.4°F14.1°C 48.1°F8.9°C 71% 3.7 mph SW6.0 kmh SW 17.9 mph28.8 kmh 30.10 in1019.3 mb 0.00 in0.0 mm 0.00 in0.0 mm 0.00 in0.0 mm
02:15 AM 57.0°F13.9°C 47.7°F8.7°C 71% 4.0 mph SW6.4 kmh SW 10.1 mph16.3 kmh 30.10 in1019.3 mb 0.00 in0.0 mm 0.00 in0.0 mm 0.00 in0.0 mm
02:30 AM 57.0°F13.9°C 48.1°F8.9°C 72% 4.3 mph SSW6.9 kmh SSW 10.5 mph16.9 kmh 30.11 in1019.6 mb 0.00 in0.0 mm 0.00 in0.0 mm 0.00 in0.0 mm
02:45 AM 57.0°F13.9°C 48.1°F8.9°C 72% 3.7 mph SW6.0 kmh SW 8.9 mph14.3 kmh 30.10 in1019.3 mb 0.00 in0.0 mm 0.00 in0.0 mm 0.00 in0.0 mm
03:00 AM 56.8°F13.8°C 47.9°F8.8°C 72% 3.7 mph S6.0 kmh S 13.4 mph21.6 kmh 30.10 in1019.3 mb 0.00 in0.0 mm 0.00 in0.0 mm 0.00 in0.0 mm
03:15 AM 56.8°F13.8°C 47.9°F8.8°C 72% 3.4 mph S5.5 kmh S 8.7 mph14.0 kmh 30.10 in1019.3 mb 0.00 in0.0 mm 0.00 in0.0 mm 0.00 in0.0 mm
03:30 AM 56.8°F13.8°C 48.3°F9.1°C 73% 3.2 mph SW5.1 kmh SW 7.6 mph12.2 kmh 30.10 in1019.3 mb 0.00 in0.0 mm 0.00 in0.0 mm 0.00 in0.0 mm
03:45 AM 57.0°F13.9°C 48.8°F9.3°C 74% 3.4 mph SSW5.5 kmh SSW 13.0 mph20.9 kmh 30.11 in1019.6 mb 0.00 in0.0 mm 0.00 in0.0 mm 0.00 in0.0 mm
04:00 AM 57.0°F13.9°C 48.4°F9.1°C 73% 3.8 mph SW6.1 kmh SW 17.4 mph28.0 kmh 30.11 in1019.6 mb 0.00 in0.0 mm 0.00 in0.0 mm 0.00 in0.0 mm
04:15 AM 57.0°F13.9°C 47.7°F8.7°C 71% 3.0 mph SW4.8 kmh SW 8.1 mph13.0 kmh 30.10 in1019.3 mb 0.00 in0.0 mm 0.00 in0.0 mm 0.00 in0.0 mm
04:30 AM 57.4°F14.1°C 48.1°F8.9°C 71% 3.5 mph SW5.6 kmh SW 8.9 mph14.3 kmh 30.11 in1019.6 mb 0.00 in0.0 mm 0.00 in0.0 mm 0.00 in0.0 mm
04:45 AM 57.4°F14.1°C 48.1°F8.9°C 71% 3.4 mph S5.5 kmh S 13.0 mph20.9 kmh 30.11 in1019.6 mb 0.00 in0.0 mm 0.00 in0.0 mm 0.00 in0.0 mm
05:00 AM 57.4°F14.1°C 47.7°F8.7°C 70% 3.3 mph SSW5.3 kmh SSW 7.4 mph11.9 kmh 30.10 in1019.3 mb 0.00 in0.0 mm 0.00 in0.0 mm 0.00 in0.0 mm
05:15 AM 57.4°F14.1°C 47.7°F8.7°C 70% 3.3 mph WSW5.3 kmh WSW 7.6 mph12.2 kmh 30.11 in1019.6 mb 0.00 in0.0 mm 0.00 in0.0 mm 0.00 in0.0 mm
05:30 AM 57.4°F14.1°C 47.7°F8.7°C 70% 3.3 mph SW5.3 kmh SW 7.4 mph11.9 kmh 30.11 in1019.6 mb 0.00 in0.0 mm 0.00 in0.0 mm 0.00 in0.0 mm
05:45 AM 57.4°F14.1°C 47.3°F8.5°C 69% 4.1 mph SW6.6 kmh SW 12.5 mph20.1 kmh 30.11 in1019.6 mb 0.00 in0.0 mm 0.00 in0.0 mm 0.00 in0.0 mm
06:00 AM 57.6°F14.2°C 47.8°F8.8°C 70% 3.6 mph SSW5.8 kmh SSW 10.5 mph16.9 kmh 30.10 in1019.3 mb 0.00 in0.0 mm 0.00 in0.0 mm 0.00 in0.0 mm
06:15 AM 57.6°F14.2°C 47.8°F8.8°C 70% 3.5 mph WSW5.6 kmh WSW 9.2 mph14.8 kmh 30.10 in1019.3 mb 0.00 in0.0 mm 0.00 in0.0 mm 0.00 in0.0 mm
06:30 AM 57.9°F14.4°C 48.6°F9.2°C 71% 3.6 mph SW5.8 kmh SW 11.2 mph18.0 kmh 30.10 in1019.3 mb 0.00 in0.0 mm 0.00 in0.0 mm 0.00 in0.0 mm
06:45 AM 58.1°F14.5°C 48.4°F9.1°C 70% 4.3 mph SW6.9 kmh SW 11.4 mph18.3 kmh 30.10 in1019.3 mb 0.00 in0.0 mm 0.00 in0.0 mm 0.00 in0.0 mm
07:00 AM 58.5°F14.7°C 48.7°F9.3°C 70% 3.6 mph SSW5.8 kmh SSW 9.2 mph14.8 kmh 30.10 in1019.3 mb 0.00 in0.0 mm 0.00 in0.0 mm 0.00 in0.0 mm
07:15 AM 58.8°F14.9°C 49.1°F9.5°C 70% 3.9 mph SSW6.3 kmh SSW 11.9 mph19.2 kmh 30.10 in1019.3 mb 0.00 in0.0 mm 0.00 in0.0 mm 0.00 in0.0 mm
07:30 AM 58.8°F14.9°C 49.1°F9.5°C 70% 4.0 mph WSW6.4 kmh WSW 10.5 mph16.9 kmh 30.11 in1019.6 mb 0.00 in0.0 mm 0.00 in0.0 mm 0.00 in0.0 mm
07:45 AM 59.4°F15.2°C 49.6°F9.8°C 70% 3.8 mph SSW6.1 kmh SSW 12.1 mph19.5 kmh 30.11 in1019.6 mb 0.00 in0.0 mm 0.00 in0.0 mm 0.00 in0.0 mm
08:00 AM 59.9°F15.5°C 50.1°F10.1°C 70% 4.2 mph SSW6.8 kmh SSW 11.0 mph17.7 kmh 30.11 in1019.6 mb 0.00 in0.0 mm 0.00 in0.0 mm 0.00 in0.0 mm
08:15 AM 60.4°F15.8°C 50.6°F10.3°C 70% 3.9 mph SW6.3 kmh SW 9.6 mph15.4 kmh 30.11 in1019.6 mb 0.00 in0.0 mm 0.00 in0.0 mm 0.00 in0.0 mm
08:30 AM 61.0°F16.1°C 50.7°F10.4°C 69% 4.8 mph SW7.7 kmh SW 17.2 mph27.7 kmh 30.11 in1019.6 mb 0.00 in0.0 mm 0.00 in0.0 mm 0.00 in0.0 mm
08:45 AM 61.2°F16.2°C 51.3°F10.7°C 70% 4.4 mph SW7.1 kmh SW 12.8 mph20.6 kmh 30.11 in1019.6 mb 0.00 in0.0 mm 0.00 in0.0 mm 0.00 in0.0 mm
09:00 AM 61.5°F16.4°C 52.0°F11.1°C 71% 4.7 mph SW7.6 kmh SW 17.9 mph28.8 kmh 30.11 in1019.6 mb 0.00 in0.0 mm 0.00 in0.0 mm 0.00 in0.0 mm
09:15 AM 61.7°F16.5°C 52.2°F11.2°C 71% 4.7 mph SW7.6 kmh SW 16.8 mph27.0 kmh 30.12 in1020.0 mb 0.00 in0.0 mm 0.00 in0.0 mm 0.00 in0.0 mm
09:30 AM 62.1°F16.7°C 52.2°F11.2°C 70% 4.3 mph W6.9 kmh W 9.8 mph15.8 kmh 30.12 in1020.0 mb 0.00 in0.0 mm 0.00 in0.0 mm 0.00 in0.0 mm
09:45 AM 62.2°F16.8°C 51.9°F11.1°C 69% 4.4 mph S7.1 kmh S 12.5 mph20.1 kmh 30.12 in1020.0 mb 0.00 in0.0 mm 0.00 in0.0 mm 0.00 in0.0 mm
10:00 AM 62.4°F16.9°C 51.7°F10.9°C 68% 4.8 mph SW7.7 kmh SW 12.8 mph20.6 kmh 30.12 in1020.0 mb 0.00 in0.0 mm 0.00 in0.0 mm 0.00 in0.0 mm
10:15 AM 62.8°F17.1°C 52.1°F11.2°C 68% 5.1 mph SW8.2 kmh SW 16.3 mph26.2 kmh 30.13 in1020.3 mb 0.00 in0.0 mm 0.00 in0.0 mm 0.00 in0.0 mm
10:30 AM 63.1°F17.3°C 52.4°F11.3°C 68% 4.2 mph SSW6.8 kmh SSW 10.5 mph16.9 kmh 30.13 in1020.3 mb 0.00 in0.0 mm 0.00 in0.0 mm 0.00 in0.0 mm
10:45 AM 63.7°F17.6°C 52.9°F11.6°C 68% 3.7 mph SW6.0 kmh SW 9.6 mph15.4 kmh 30.14 in1020.7 mb 0.00 in0.0 mm 0.00 in0.0 mm 0.00 in0.0 mm
11:00 AM 64.0°F17.8°C 52.9°F11.6°C 67% 4.5 mph S7.2 kmh S 13.6 mph21.9 kmh 30.14 in1020.7 mb 0.00 in0.0 mm 0.00 in0.0 mm 0.00 in0.0 mm
11:15 AM 64.2°F17.9°C 53.0°F11.7°C 67% 4.1 mph SSE6.6 kmh SSE 11.9 mph19.2 kmh 30.13 in1020.3 mb 0.00 in0.0 mm 0.00 in0.0 mm 0.00 in0.0 mm
11:30 AM 64.6°F18.1°C 53.8°F12.1°C 68% 3.7 mph SSE6.0 kmh SSE 13.0 mph20.9 kmh 30.14 in1020.7 mb 0.00 in0.0 mm 0.00 in0.0 mm 0.00 in0.0 mm
11:45 AM 65.1°F18.4°C 53.9°F12.2°C 67% 3.5 mph SW5.6 kmh SW 10.1 mph16.3 kmh 30.14 in1020.7 mb 0.00 in0.0 mm 0.00 in0.0 mm 0.00 in0.0 mm
12:00 PM 65.8°F18.8°C 54.2°F12.3°C 66% 3.8 mph SW6.1 kmh SW 13.4 mph21.6 kmh 30.13 in1020.3 mb 0.00 in0.0 mm 0.00 in0.0 mm 0.00 in0.0 mm
12:15 PM 66.0°F18.9°C 54.3°F12.4°C 66% 3.6 mph WSW5.8 kmh WSW 11.0 mph17.7 kmh 30.13 in1020.3 mb 0.00 in0.0 mm 0.00 in0.0 mm 0.00 in0.0 mm
12:30 PM 66.4°F19.1°C 54.7°F12.6°C 66% 3.3 mph WSW5.3 kmh WSW 8.5 mph13.7 kmh 30.14 in1020.7 mb 0.00 in0.0 mm 0.00 in0.0 mm 0.00 in0.0 mm
12:45 PM 67.1°F19.5°C 55.4°F13.0°C 66% 2.4 mph N3.9 kmh N 6.7 mph10.8 kmh 30.13 in1020.3 mb 0.00 in0.0 mm 0.00 in0.0 mm 0.00 in0.0 mm
01:00 PM 67.6°F19.8°C 55.9°F13.3°C 66% 3.0 mph NNW4.8 kmh NNW 10.3 mph16.6 kmh 30.13 in1020.3 mb 0.00 in0.0 mm 0.00 in0.0 mm 0.00 in0.0 mm
01:15 PM 68.4°F20.2°C 56.1°F13.4°C 65% 2.9 mph NNW4.7 kmh NNW 12.8 mph20.6 kmh 30.12 in1020.0 mb 0.00 in0.0 mm 0.00 in0.0 mm 0.00 in0.0 mm
01:30 PM 69.1°F20.6°C 56.8°F13.8°C 65% 3.1 mph NW5.0 kmh NW 8.9 mph14.3 kmh 30.12 in1020.0 mb 0.00 in0.0 mm 0.00 in0.0 mm 0.00 in0.0 mm
01:45 PM 69.6°F20.9°C 56.9°F13.8°C 64% 3.2 mph SSE5.1 kmh SSE 15.0 mph24.1 kmh 30.12 in1020.0 mb 0.00 in0.0 mm 0.00 in0.0 mm 0.00 in0.0 mm
02:00 PM 69.6°F20.9°C 56.9°F13.8°C 64% 3.2 mph W5.1 kmh W 8.3 mph13.4 kmh 30.12 in1020.0 mb 0.00 in0.0 mm 0.00 in0.0 mm 0.00 in0.0 mm
02:15 PM 70.3°F21.3°C 57.1°F13.9°C 63% 3.6 mph SSE5.8 kmh SSE 11.0 mph17.7 kmh 30.12 in1020.0 mb 0.00 in0.0 mm 0.00 in0.0 mm 0.00 in0.0 mm
02:30 PM 71.2°F21.8°C 58.0°F14.4°C 63% 2.5 mph W4.0 kmh W 5.6 mph9.0 kmh 30.12 in1020.0 mb 0.00 in0.0 mm 0.00 in0.0 mm 0.00 in0.0 mm
02:45 PM 71.6°F22.0°C 58.3°F14.6°C 63% 2.6 mph S4.2 kmh S 10.3 mph16.6 kmh 30.12 in1020.0 mb 0.00 in0.0 mm 0.00 in0.0 mm 0.00 in0.0 mm
03:00 PM 71.8°F22.1°C 58.1°F14.5°C 62% 2.2 mph S3.5 kmh S 6.0 mph9.7 kmh 30.11 in1019.6 mb 0.00 in0.0 mm 0.00 in0.0 mm 0.00 in0.0 mm
03:15 PM 72.7°F22.6°C 58.9°F14.9°C 62% 2.3 mph SE3.7 kmh SE 10.3 mph16.6 kmh 30.12 in1020.0 mb 0.00 in0.0 mm 0.00 in0.0 mm 0.00 in0.0 mm
03:30 PM 72.7°F22.6°C 58.5°F14.7°C 61% 2.5 mph W4.0 kmh W 10.7 mph17.2 kmh 30.12 in1020.0 mb 0.00 in0.0 mm 0.00 in0.0 mm 0.00 in0.0 mm
03:45 PM 73.2°F22.9°C 59.4°F15.2°C 62% 2.0 mph S3.2 kmh S 8.3 mph13.4 kmh 30.11 in1019.6 mb 0.00 in0.0 mm 0.00 in0.0 mm 0.00 in0.0 mm
04:00 PM 73.8°F23.2°C 59.0°F15.0°C 60% 1.7 mph SW2.7 kmh SW 8.9 mph14.3 kmh 30.11 in1019.6 mb 0.00 in0.0 mm 0.00 in0.0 mm 0.00 in0.0 mm
04:15 PM 74.1°F23.4°C 59.3°F15.2°C 60% 1.5 mph SW2.4 kmh SW 5.8 mph9.3 kmh 30.11 in1019.6 mb 0.00 in0.0 mm 0.00 in0.0 mm 0.00 in0.0 mm
04:30 PM 73.6°F23.1°C 59.3°F15.2°C 61% 2.1 mph SW3.4 kmh SW 7.8 mph12.6 kmh 30.11 in1019.6 mb 0.00 in0.0 mm 0.00 in0.0 mm 0.00 in0.0 mm
04:45 PM 73.2°F22.9°C 59.0°F15.0°C 61% 1.8 mph SSE2.9 kmh SSE 7.2 mph11.6 kmh 30.10 in1019.3 mb 0.00 in0.0 mm 0.00 in0.0 mm 0.00 in0.0 mm
05:00 PM 72.5°F22.5°C 58.3°F14.6°C 61% 2.0 mph SW3.2 kmh SW 6.9 mph11.1 kmh 30.10 in1019.3 mb 0.00 in0.0 mm 0.00 in0.0 mm 0.00 in0.0 mm
05:15 PM 72.1°F22.3°C 58.4°F14.7°C 62% 2.2 mph S3.5 kmh S 13.4 mph21.6 kmh 30.09 in1019.0 mb 0.00 in0.0 mm 0.00 in0.0 mm 0.00 in0.0 mm
05:30 PM 71.8°F22.1°C 58.1°F14.5°C 62% 2.1 mph SW3.4 kmh SW 5.6 mph9.0 kmh 30.09 in1019.0 mb 0.00 in0.0 mm 0.00 in0.0 mm 0.00 in0.0 mm
05:45 PM 71.4°F21.9°C 57.7°F14.3°C 62% 2.0 mph SW3.2 kmh SW 7.6 mph12.2 kmh 30.09 in1019.0 mb 0.00 in0.0 mm 0.00 in0.0 mm 0.00 in0.0 mm
06:00 PM 70.3°F21.3°C 56.7°F13.7°C 62% 1.7 mph WSW2.7 kmh WSW 8.5 mph13.7 kmh 30.09 in1019.0 mb 0.00 in0.0 mm 0.00 in0.0 mm 0.00 in0.0 mm
06:15 PM 68.7°F20.4°C 56.0°F13.3°C 64% 2.4 mph SW3.9 kmh SW 6.5 mph10.5 kmh 30.09 in1019.0 mb 0.00 in0.0 mm 0.00 in0.0 mm 0.00 in0.0 mm
06:30 PM 67.8°F19.9°C 55.6°F13.1°C 65% 2.3 mph WSW3.7 kmh WSW 6.0 mph9.7 kmh 30.09 in1019.0 mb 0.00 in0.0 mm 0.00 in0.0 mm 0.00 in0.0 mm
06:45 PM 66.6°F19.2°C 54.8°F12.7°C 66% 1.9 mph SW3.1 kmh SW 6.7 mph10.8 kmh 30.09 in1019.0 mb 0.00 in0.0 mm 0.00 in0.0 mm 0.00 in0.0 mm
07:00 PM 64.9°F18.3°C 54.1°F12.3°C 68% 2.8 mph WSW4.5 kmh WSW 7.6 mph12.2 kmh 30.09 in1019.0 mb 0.00 in0.0 mm 0.00 in0.0 mm 0.00 in0.0 mm
07:15 PM 64.0°F17.8°C 53.7°F12.1°C 69% 2.4 mph SW3.9 kmh SW 8.1 mph13.0 kmh 30.09 in1019.0 mb 0.00 in0.0 mm 0.00 in0.0 mm 0.00 in0.0 mm
07:30 PM 63.5°F17.5°C 53.5°F11.9°C 70% 2.2 mph WSW3.5 kmh WSW 5.8 mph9.3 kmh 30.09 in1019.0 mb 0.00 in0.0 mm 0.00 in0.0 mm 0.00 in0.0 mm
07:45 PM 63.1°F17.3°C 53.6°F12.0°C 71% 2.5 mph SW4.0 kmh SW 9.2 mph14.8 kmh 30.10 in1019.3 mb 0.00 in0.0 mm 0.00 in0.0 mm 0.00 in0.0 mm
08:00 PM 63.0°F17.2°C 53.8°F12.1°C 72% 2.3 mph W3.7 kmh W 6.3 mph10.1 kmh 30.10 in1019.3 mb 0.00 in0.0 mm 0.00 in0.0 mm 0.00 in0.0 mm
08:15 PM 62.8°F17.1°C 53.6°F12.0°C 72% 2.7 mph WSW4.3 kmh WSW 10.7 mph17.2 kmh 30.10 in1019.3 mb 0.00 in0.0 mm 0.00 in0.0 mm 0.00 in0.0 mm
08:30 PM 62.6°F17.0°C 53.4°F11.9°C 72% 2.8 mph WSW4.5 kmh WSW 7.6 mph12.2 kmh 30.10 in1019.3 mb 0.00 in0.0 mm 0.00 in0.0 mm 0.00 in0.0 mm
08:45 PM 62.4°F16.9°C 53.3°F11.8°C 72% 2.0 mph WSW3.2 kmh WSW 6.7 mph10.8 kmh 30.10 in1019.3 mb 0.00 in0.0 mm 0.00 in0.0 mm 0.00 in0.0 mm
09:00 PM 62.4°F16.9°C 53.3°F11.8°C 72% 2.0 mph WSW3.2 kmh WSW 6.0 mph9.7 kmh 30.10 in1019.3 mb 0.00 in0.0 mm 0.00 in0.0 mm 0.00 in0.0 mm
09:15 PM 62.4°F16.9°C 53.3°F11.8°C 72% 2.4 mph WSW3.9 kmh WSW 7.2 mph11.6 kmh 30.10 in1019.3 mb 0.00 in0.0 mm 0.00 in0.0 mm 0.00 in0.0 mm
09:30 PM 62.4°F16.9°C 53.3°F11.8°C 72% 2.6 mph WSW4.2 kmh WSW 6.7 mph10.8 kmh 30.11 in1019.6 mb 0.00 in0.0 mm 0.00 in0.0 mm 0.00 in0.0 mm
09:45 PM 62.4°F16.9°C 53.3°F11.8°C 72% 2.6 mph W4.2 kmh W 9.6 mph15.4 kmh 30.11 in1019.6 mb 0.00 in0.0 mm 0.00 in0.0 mm 0.00 in0.0 mm
10:00 PM 62.4°F16.9°C 53.3°F11.8°C 72% 2.4 mph W3.9 kmh W 6.7 mph10.8 kmh 30.11 in1019.6 mb 0.00 in0.0 mm 0.00 in0.0 mm 0.00 in0.0 mm
10:15 PM 62.4°F16.9°C 53.3°F11.8°C 72% 2.7 mph WSW4.3 kmh WSW 6.3 mph10.1 kmh 30.11 in1019.6 mb 0.00 in0.0 mm 0.00 in0.0 mm 0.00 in0.0 mm
10:30 PM 62.4°F16.9°C 53.3°F11.8°C 72% 2.5 mph W4.0 kmh W 7.4 mph11.9 kmh 30.11 in1019.6 mb 0.00 in0.0 mm 0.00 in0.0 mm 0.00 in0.0 mm
10:45 PM 62.4°F16.9°C 53.3°F11.8°C 72% 2.4 mph W3.9 kmh W 7.4 mph11.9 kmh 30.11 in1019.6 mb 0.00 in0.0 mm 0.00 in0.0 mm 0.00 in0.0 mm
11:00 PM 62.2°F16.8°C 53.1°F11.7°C 72% 2.5 mph W4.0 kmh W 6.5 mph10.5 kmh 30.11 in1019.6 mb 0.00 in0.0 mm 0.00 in0.0 mm 0.00 in0.0 mm
11:15 PM 62.2°F16.8°C 53.1°F11.7°C 72% 2.7 mph W4.3 kmh W 5.4 mph8.7 kmh 30.11 in1019.6 mb 0.00 in0.0 mm 0.00 in0.0 mm 0.00 in0.0 mm
11:30 PM 62.1°F16.7°C 52.9°F11.6°C 72% 2.6 mph W4.2 kmh W 5.6 mph9.0 kmh 30.10 in1019.3 mb 0.00 in0.0 mm 0.00 in0.0 mm 0.00 in0.0 mm
11:45 PM 61.9°F16.6°C 53.1°F11.7°C 73% 2.2 mph W3.5 kmh W 6.5 mph10.5 kmh 30.10 in1019.3 mb 0.00 in0.0 mm 0.00 in0.0 mm 0.00 in0.0 mm